createdAt,value
2022-12-01T00:00:56.154Z,47.20
2022-12-01T00:03:27.008Z,47.00
2022-12-01T00:06:01.505Z,49.90
2022-12-01T00:08:32.450Z,53.70
2022-12-01T00:11:05.954Z,54.20
2022-12-01T00:16:12.471Z,53.60
2022-12-01T00:18:42.961Z,54.80
2022-12-01T00:21:16.256Z,51.90
2022-12-01T00:23:47.748Z,50.30
2022-12-01T00:26:19.315Z,52.30
2022-12-01T00:28:51.174Z,50.50
2022-12-01T00:31:22.221Z,56.40
2022-12-01T00:33:53.499Z,52.60
2022-12-01T00:36:24.897Z,55.90
2022-12-01T00:38:56.355Z,54.70
2022-12-01T00:41:27.720Z,54.40
2022-12-01T00:43:58.294Z,55.60
2022-12-01T00:46:29.285Z,56.30
2022-12-01T00:49:00.272Z,54.30
2022-12-01T00:51:31.449Z,55.40
2022-12-01T00:54:01.962Z,56.70
2022-12-01T00:56:32.977Z,52.40
2022-12-01T00:59:03.665Z,54.60
2022-12-01T01:01:35.420Z,50.80
2022-12-01T01:04:06.533Z,53.40
2022-12-01T01:06:37.439Z,49.60
2022-12-01T01:09:07.968Z,52.90
2022-12-01T01:11:38.699Z,54.60
2022-12-01T01:14:09.033Z,61.10
2022-12-01T01:16:40.043Z,56.40
2022-12-01T01:19:10.591Z,58.40
2022-12-01T01:21:41.470Z,56.80
2022-12-01T01:24:12.061Z,56.70
2022-12-01T01:26:43.307Z,56.80
2022-12-01T01:29:13.933Z,53.90
2022-12-01T01:31:44.948Z,62.20
2022-12-01T01:34:15.472Z,54.80
2022-12-01T01:36:47.256Z,58.60
2022-12-01T01:39:18.120Z,54.40
2022-12-01T01:41:48.869Z,59.60
2022-12-01T01:44:36.699Z,59.90
2022-12-01T01:47:07.599Z,61.00
2022-12-01T01:49:38.131Z,67.10
2022-12-01T01:52:08.960Z,56.80
2022-12-01T01:54:41.545Z,59.80
2022-12-01T01:57:13.446Z,55.50
2022-12-01T01:59:45.130Z,58.50
2022-12-01T02:02:16.273Z,61.80
2022-12-01T02:04:48.293Z,55.50
2022-12-01T02:07:20.815Z,55.40
2022-12-01T02:09:51.504Z,54.90
2022-12-01T02:12:27.932Z,59.00
2022-12-01T02:15:05.134Z,55.00
2022-12-01T02:17:41.684Z,52.70
2022-12-01T02:20:41.865Z,58.40
2022-12-01T02:23:25.968Z,49.40
2022-12-01T02:26:03.127Z,53.80
2022-12-01T02:28:48.424Z,55.60
2022-12-01T02:31:19.713Z,57.80
2022-12-01T02:33:53.711Z,53.90
2022-12-01T02:36:30.543Z,66.90
2022-12-01T02:39:08.178Z,55.80
2022-12-01T02:41:40.376Z,53.10
2022-12-01T02:44:15.373Z,57.70
2022-12-01T02:46:47.365Z,58.80
2022-12-01T02:49:19.370Z,60.30
2022-12-01T02:51:49.902Z,60.10
2022-12-01T02:54:21.030Z,59.70
2022-12-01T02:56:54.360Z,55.70
2022-12-01T03:02:02.264Z,60.70
2022-12-01T03:04:38.226Z,56.90
2022-12-01T03:07:12.947Z,56.90
2022-12-01T03:09:47.896Z,55.30
2022-12-01T03:12:22.319Z,50.80
2022-12-01T03:14:59.305Z,56.70
2022-12-01T03:17:32.121Z,47.70
2022-12-01T03:20:08.830Z,52.30
2022-12-01T03:22:42.630Z,47.90
2022-12-01T03:25:14.598Z,46.30
2022-12-01T03:28:13.827Z,51.00
2022-12-01T03:30:38.988Z,53.80
2022-12-01T03:33:10.445Z,48.00
2022-12-01T03:35:44.148Z,53.50
2022-12-01T03:40:44.417Z,41.60
2022-12-01T03:43:17.066Z,40.00
2022-12-01T03:45:52.228Z,40.50
2022-12-01T03:48:24.467Z,37.30
2022-12-01T03:50:57.764Z,40.60
2022-12-01T03:53:30.334Z,37.70
2022-12-01T03:56:03.943Z,34.50
2022-12-01T04:01:05.506Z,35.50
2022-12-01T04:03:36.137Z,29.90
2022-12-01T04:06:07.499Z,30.10
2022-12-01T04:08:38.321Z,31.30
2022-12-01T04:11:22.877Z,30.70
2022-12-01T04:13:53.350Z,30.10
2022-12-01T04:16:24.515Z,26.20
2022-12-01T04:18:55.181Z,28.40
2022-12-01T04:21:25.963Z,27.80
2022-12-01T04:24:02.497Z,24.10
2022-12-01T04:26:35.388Z,27.50
2022-12-01T04:29:07.363Z,26.70
2022-12-01T04:31:38.447Z,27.70
2022-12-01T04:34:09.252Z,26.20
2022-12-01T04:36:39.940Z,25.70
2022-12-01T04:39:10.468Z,30.10
2022-12-01T04:41:41.527Z,28.50
2022-12-01T04:44:12.299Z,31.40
2022-12-01T04:46:43.029Z,31.00
2022-12-01T04:49:13.550Z,30.90
2022-12-01T04:51:44.334Z,31.20
2022-12-01T04:54:14.736Z,29.70
2022-12-01T04:56:45.383Z,30.70
2022-12-01T04:59:16.123Z,31.20
2022-12-01T05:01:48.376Z,28.70
2022-12-01T05:04:19.229Z,32.60
2022-12-01T05:06:49.692Z,29.60
2022-12-01T05:09:21.617Z,29.10
2022-12-01T05:11:52.062Z,28.20
2022-12-01T05:14:22.680Z,31.20
2022-12-01T05:16:54.743Z,31.40
2022-12-01T05:19:43.325Z,34.00
2022-12-01T05:22:14.031Z,28.80
2022-12-01T05:24:44.759Z,30.90
2022-12-01T05:27:16.078Z,29.20
2022-12-01T05:29:47.024Z,28.70
2022-12-01T05:32:17.878Z,31.60
2022-12-01T05:34:48.618Z,27.20
2022-12-01T05:37:19.364Z,27.20
2022-12-01T05:39:50.174Z,32.40
2022-12-01T05:42:21.197Z,25.30
2022-12-01T05:44:52.054Z,28.60
2022-12-01T05:47:22.750Z,37.20
2022-12-01T05:49:53.321Z,30.50
2022-12-01T05:52:23.746Z,24.50
2022-12-01T05:54:54.063Z,25.10
2022-12-01T05:57:24.695Z,30.10
2022-12-01T05:59:55.020Z,29.60
2022-12-01T06:02:27.099Z,28.10
2022-12-01T06:04:57.551Z,28.10
2022-12-01T06:07:28.892Z,26.50
2022-12-01T06:09:59.493Z,28.20
2022-12-01T06:12:30.732Z,30.00
2022-12-01T06:15:01.915Z,24.70
2022-12-01T06:17:37.073Z,27.70
2022-12-01T06:20:11.646Z,27.30
2022-12-01T06:22:43.093Z,27.80
2022-12-01T06:25:13.358Z,26.40
2022-12-01T06:27:44.402Z,24.80
2022-12-01T06:30:15.335Z,20.90
2022-12-01T06:32:46.127Z,26.40
2022-12-01T06:35:16.824Z,26.50
2022-12-01T06:37:50.456Z,24.20
2022-12-01T06:40:20.786Z,26.80
2022-12-01T06:42:51.658Z,24.10
2022-12-01T06:45:22.242Z,24.30
2022-12-01T06:47:55.639Z,25.00
2022-12-01T06:50:26.571Z,30.90
2022-12-01T06:52:59.273Z,27.70
2022-12-01T06:55:29.951Z,26.40
2022-12-01T06:58:02.159Z,28.30
2022-12-01T07:00:33.202Z,24.80
2022-12-01T07:03:04.237Z,27.00
2022-12-01T07:05:34.763Z,29.50
2022-12-01T07:08:06.986Z,29.50
2022-12-01T07:10:37.361Z,26.90
2022-12-01T07:13:08.276Z,29.20
2022-12-01T07:15:39.340Z,24.40
2022-12-01T07:18:10.535Z,23.80
2022-12-01T07:20:40.870Z,26.20
2022-12-01T07:23:12.007Z,27.50
2022-12-01T07:25:42.375Z,31.50
2022-12-01T07:28:13.358Z,28.40
2022-12-01T07:30:43.777Z,24.20
2022-12-01T07:33:14.981Z,21.30
2022-12-01T07:35:45.307Z,25.90
2022-12-01T07:38:21.783Z,27.30
2022-12-01T07:40:52.640Z,27.80
2022-12-01T07:43:23.909Z,24.30
2022-12-01T07:45:54.228Z,25.00
2022-12-01T07:48:25.231Z,27.30
2022-12-01T07:50:56.907Z,28.00
2022-12-01T07:53:28.121Z,27.50
2022-12-01T07:55:58.543Z,23.30
2022-12-01T07:58:29.793Z,26.40
2022-12-01T08:01:00.625Z,25.40
2022-12-01T08:03:31.772Z,26.80
2022-12-01T08:06:03.007Z,28.30
2022-12-01T08:08:34.780Z,30.60
2022-12-01T08:11:06.326Z,30.80
2022-12-01T08:13:37.303Z,21.60
2022-12-01T08:16:08.590Z,23.80
2022-12-01T08:18:40.514Z,24.40
2022-12-01T08:21:12.017Z,22.90
2022-12-01T08:23:43.364Z,26.90
2022-12-01T08:26:15.248Z,27.40
2022-12-01T08:28:47.681Z,21.70
2022-12-01T08:31:18.915Z,25.30
2022-12-01T08:33:50.875Z,24.80
2022-12-01T08:36:21.611Z,23.80
2022-12-01T08:38:53.704Z,22.50
2022-12-01T08:41:24.945Z,21.60
2022-12-01T08:43:58.466Z,19.80
2022-12-01T08:46:30.569Z,22.70
2022-12-01T08:49:01.770Z,21.60
2022-12-01T08:51:33.152Z,22.20
2022-12-01T08:54:03.786Z,22.60
2022-12-01T08:56:35.596Z,23.50
2022-12-01T08:59:06.585Z,26.30
2022-12-01T09:01:52.061Z,21.80
2022-12-01T09:04:24.588Z,21.00
2022-12-01T09:06:56.368Z,22.80
2022-12-01T09:09:28.619Z,24.50
2022-12-01T09:11:59.451Z,23.30
2022-12-01T09:14:30.797Z,23.50
2022-12-01T09:17:01.327Z,21.80
2022-12-01T09:19:32.413Z,23.70
2022-12-01T09:22:03.238Z,22.00
2022-12-01T09:24:33.836Z,23.90
2022-12-01T09:27:04.872Z,23.80
2022-12-01T09:29:35.969Z,24.30
2022-12-01T09:32:06.829Z,22.10
2022-12-01T09:34:37.799Z,24.20
2022-12-01T09:37:08.318Z,20.90
2022-12-01T09:39:39.187Z,22.60
2022-12-01T09:42:13.921Z,22.60
2022-12-01T09:44:47.928Z,28.10
2022-12-01T09:47:21.188Z,24.70
2022-12-01T09:49:57.626Z,26.90
2022-12-01T09:52:29.891Z,23.30
2022-12-01T09:55:01.698Z,24.80
2022-12-01T09:57:33.741Z,31.60
2022-12-01T10:00:09.864Z,26.80
2022-12-01T10:02:45.556Z,28.50
2022-12-01T10:05:19.488Z,24.00
2022-12-01T10:10:22.202Z,23.20
2022-12-01T10:12:52.585Z,23.10
2022-12-01T10:15:32.023Z,26.00
2022-12-01T10:18:09.528Z,24.40
2022-12-01T10:20:43.847Z,27.20
2022-12-01T10:23:21.216Z,23.90
2022-12-01T10:25:56.820Z,28.30
2022-12-01T10:28:34.918Z,25.30
2022-12-01T10:31:08.975Z,23.40
2022-12-01T10:33:46.691Z,25.30
2022-12-01T10:36:17.575Z,21.20
2022-12-01T10:38:47.997Z,27.80
2022-12-01T10:41:20.157Z,27.70
2022-12-01T10:43:52.680Z,39.90
2022-12-01T10:46:25.775Z,29.90
2022-12-01T10:51:27.539Z,30.20
2022-12-01T10:54:07.487Z,28.50
2022-12-01T10:56:40.589Z,28.20
2022-12-01T10:59:22.585Z,28.30
2022-12-01T11:01:54.185Z,26.40
2022-12-01T11:04:30.633Z,27.20
2022-12-01T11:07:01.614Z,30.40
2022-12-01T11:09:32.173Z,30.10
2022-12-01T11:12:03.983Z,26.80
2022-12-01T11:14:42.542Z,29.70
2022-12-01T11:17:18.089Z,25.10
2022-12-01T11:19:48.624Z,23.50
2022-12-01T11:22:22.626Z,23.10
2022-12-01T11:25:00.567Z,24.70
2022-12-01T11:27:33.140Z,25.70
2022-12-01T11:30:07.309Z,25.60
2022-12-01T11:32:39.620Z,24.00
2022-12-01T11:35:18.135Z,25.10
2022-12-01T11:38:13.255Z,27.10
2022-12-01T11:40:46.634Z,26.90
2022-12-01T11:43:23.081Z,24.90
2022-12-01T11:45:54.393Z,29.10
2022-12-01T11:48:27.709Z,30.10
2022-12-01T11:51:06.206Z,25.80
2022-12-01T11:53:38.253Z,24.10
2022-12-01T11:56:19.277Z,24.80
2022-12-01T11:58:51.207Z,23.30
2022-12-01T12:01:33.738Z,24.80
2022-12-01T12:04:09.699Z,23.30
2022-12-01T12:06:43.182Z,23.50
2022-12-01T12:09:25.043Z,24.40
2022-12-01T12:12:03.560Z,25.80
2022-12-01T12:14:39.858Z,27.60
2022-12-01T12:17:18.533Z,25.10
2022-12-01T12:20:12.188Z,22.30
2022-12-01T12:22:54.967Z,26.10
2022-12-01T12:25:31.345Z,23.40
2022-12-01T12:28:09.562Z,22.60
2022-12-01T12:30:44.241Z,29.80
2022-12-01T12:33:33.885Z,22.10
2022-12-01T12:36:08.708Z,26.20
2022-12-01T12:38:46.377Z,24.80
2022-12-01T12:41:22.893Z,25.70
2022-12-01T12:43:57.734Z,24.50
2022-12-01T12:46:31.281Z,22.10
2022-12-01T12:49:22.458Z,21.30
2022-12-01T12:51:55.724Z,23.70
2022-12-01T12:54:29.114Z,23.50
2022-12-01T12:57:03.936Z,21.80
2022-12-01T12:59:36.880Z,21.10
2022-12-01T13:02:11.922Z,22.60
2022-12-01T13:04:44.176Z,20.70
2022-12-01T13:07:22.559Z,20.70
2022-12-01T13:10:00.457Z,22.10
2022-12-01T13:12:32.738Z,23.20
2022-12-01T13:15:05.027Z,24.40
2022-12-01T13:17:38.549Z,24.00
2022-12-01T13:20:14.664Z,23.60
2022-12-01T13:22:47.268Z,24.80
2022-12-01T13:25:24.780Z,24.90
2022-12-01T13:27:56.627Z,23.20
2022-12-01T13:30:28.193Z,22.40
2022-12-01T13:33:03.321Z,20.50
2022-12-01T13:35:34.869Z,22.10
2022-12-01T13:38:23.204Z,24.40
2022-12-01T13:41:10.833Z,20.00
2022-12-01T13:43:50.048Z,18.70
2022-12-01T13:46:26.967Z,19.50
2022-12-01T13:48:58.756Z,18.10
2022-12-01T13:51:49.303Z,18.30
2022-12-01T13:54:30.764Z,17.60
2022-12-01T13:57:02.807Z,18.50
2022-12-01T14:00:03.020Z,18.30
2022-12-01T14:02:42.617Z,19.40
2022-12-01T14:05:31.269Z,18.80
2022-12-01T14:08:02.058Z,19.70
2022-12-01T14:10:33.676Z,18.80
2022-12-01T14:13:06.135Z,21.60
2022-12-01T14:15:42.915Z,22.60
2022-12-01T14:18:27.204Z,21.60
2022-12-01T14:20:58.121Z,24.70
2022-12-01T14:23:30.864Z,24.40
2022-12-01T14:26:06.788Z,22.70
2022-12-01T14:28:54.974Z,25.70
2022-12-01T14:31:50.203Z,22.90
2022-12-01T14:36:53.018Z,25.20
2022-12-01T14:39:25.637Z,23.80
2022-12-01T14:41:58.023Z,24.90
2022-12-01T14:44:29.730Z,25.90
2022-12-01T14:47:02.953Z,23.70
2022-12-01T14:49:36.323Z,20.30
2022-12-01T14:52:08.848Z,24.00
2022-12-01T14:54:43.715Z,22.60
2022-12-01T14:57:17.293Z,24.30
2022-12-01T15:02:17.380Z,26.40
2022-12-01T15:05:05.443Z,25.90
2022-12-01T15:07:39.633Z,25.80
2022-12-01T15:10:17.747Z,22.90
2022-12-01T15:12:49.199Z,21.30
2022-12-01T15:15:23.999Z,20.00
2022-12-01T15:17:58.110Z,23.80
2022-12-01T15:20:34.754Z,23.50
2022-12-01T15:23:15.079Z,22.80
2022-12-01T15:25:46.440Z,19.60
2022-12-01T15:28:18.603Z,19.20
2022-12-01T15:30:49.654Z,18.20
2022-12-01T15:33:26.934Z,20.40
2022-12-01T15:35:58.922Z,16.40
2022-12-01T15:38:30.541Z,17.60
2022-12-01T15:43:57.326Z,20.70
2022-12-01T15:46:31.928Z,15.60
2022-12-01T15:49:11.169Z,17.90
2022-12-01T15:51:41.585Z,19.90
2022-12-01T15:54:18.419Z,19.90
2022-12-01T15:56:52.163Z,20.60
2022-12-01T15:59:27.895Z,21.80
2022-12-01T16:01:58.507Z,21.70
2022-12-01T16:04:32.466Z,19.40
2022-12-01T16:07:04.718Z,25.30
2022-12-01T16:09:37.247Z,19.60
2022-12-01T16:12:21.107Z,18.70
2022-12-01T16:14:52.805Z,20.60
2022-12-01T16:17:24.042Z,23.90
2022-12-01T16:20:08.293Z,21.00
2022-12-01T16:22:38.915Z,21.50
2022-12-01T16:25:16.605Z,21.00
2022-12-01T16:27:52.088Z,17.80
2022-12-01T16:30:24.564Z,19.00
2022-12-01T16:33:01.201Z,25.60
2022-12-01T16:35:33.892Z,22.80
2022-12-01T16:38:08.314Z,20.60
2022-12-01T16:40:41.116Z,18.40
2022-12-01T16:43:15.413Z,20.40
2022-12-01T16:45:46.963Z,24.90
2022-12-01T16:48:19.442Z,21.00
2022-12-01T16:50:50.665Z,20.20
2022-12-01T16:53:21.095Z,22.00
2022-12-01T16:55:53.514Z,21.40
2022-12-01T16:58:24.031Z,19.70
2022-12-01T17:00:55.084Z,21.30
2022-12-01T17:03:29.003Z,19.70
2022-12-01T17:06:00.445Z,24.40
2022-12-01T17:08:30.944Z,25.00
2022-12-01T17:11:01.943Z,23.10
2022-12-01T17:13:32.371Z,25.80
2022-12-01T17:16:06.421Z,27.40
2022-12-01T17:18:37.146Z,28.60
2022-12-01T17:21:09.152Z,23.50
2022-12-01T17:23:40.717Z,22.80
2022-12-01T17:26:13.064Z,22.80
2022-12-01T17:28:43.753Z,22.30
2022-12-01T17:31:15.221Z,26.60
2022-12-01T17:33:46.548Z,24.00
2022-12-01T17:36:17.842Z,26.30
2022-12-01T17:38:49.010Z,22.50
2022-12-01T17:41:25.075Z,24.00
2022-12-01T17:43:55.837Z,24.50
2022-12-01T17:46:27.181Z,21.30
2022-12-01T17:48:57.636Z,23.00
2022-12-01T17:51:29.046Z,23.70
2022-12-01T17:53:59.385Z,21.20
2022-12-01T17:56:30.589Z,19.40
2022-12-01T17:59:00.908Z,22.60
2022-12-01T18:01:33.373Z,21.20
2022-12-01T18:04:03.843Z,19.90
2022-12-01T18:06:34.789Z,21.10
2022-12-01T18:09:05.822Z,23.30
2022-12-01T18:11:36.665Z,24.10
2022-12-01T18:14:07.194Z,25.50
2022-12-01T18:16:37.951Z,25.60
2022-12-01T18:19:08.448Z,24.90
2022-12-01T18:21:39.899Z,24.90
2022-12-01T18:24:10.538Z,24.50
2022-12-01T18:26:41.958Z,25.30
2022-12-01T18:29:16.366Z,27.10
2022-12-01T18:31:47.793Z,19.90
2022-12-01T18:34:18.085Z,23.70
2022-12-01T18:36:48.917Z,25.30
2022-12-01T18:39:19.338Z,25.30
2022-12-01T18:41:50.998Z,27.30
2022-12-01T18:44:21.523Z,22.30
2022-12-01T18:46:52.589Z,24.90
2022-12-01T18:49:23.292Z,22.80
2022-12-01T18:51:54.230Z,25.30
2022-12-01T18:54:24.654Z,24.90
2022-12-01T18:56:59.039Z,23.80
2022-12-01T18:59:29.752Z,28.10
2022-12-01T19:02:01.196Z,24.40
2022-12-01T19:04:32.816Z,20.30
2022-12-01T19:07:04.288Z,21.80
2022-12-01T19:09:34.694Z,18.00
2022-12-01T19:12:06.144Z,19.50
2022-12-01T19:14:36.866Z,19.90
2022-12-01T19:17:07.705Z,20.00
2022-12-01T19:19:38.132Z,26.90
2022-12-01T19:22:08.981Z,23.90
2022-12-01T19:24:39.492Z,24.20
2022-12-01T19:27:11.042Z,22.60
2022-12-01T19:29:41.473Z,25.80
2022-12-01T19:32:12.714Z,24.40
2022-12-01T19:34:43.041Z,25.20
2022-12-01T19:37:13.641Z,21.70
2022-12-01T19:39:44.100Z,24.70
2022-12-01T19:42:14.886Z,23.90
2022-12-01T19:44:45.460Z,23.00
2022-12-01T19:47:21.883Z,26.00
2022-12-01T19:49:52.779Z,26.30
2022-12-01T19:52:23.602Z,22.10
2022-12-01T19:54:54.644Z,25.50
2022-12-01T19:57:25.264Z,25.10
2022-12-01T19:59:55.795Z,21.80
2022-12-01T20:02:29.336Z,22.70
2022-12-01T20:05:00.409Z,25.60
2022-12-01T20:07:31.880Z,28.10
2022-12-01T20:10:02.362Z,25.80
2022-12-01T20:12:33.175Z,24.50
2022-12-01T20:15:07.386Z,25.90
2022-12-01T20:17:38.445Z,24.40
2022-12-01T20:20:11.558Z,26.90
2022-12-01T20:22:42.437Z,28.90
2022-12-01T20:25:12.966Z,25.40
2022-12-01T20:27:45.842Z,27.30
2022-12-01T20:30:16.857Z,27.60
2022-12-01T20:32:47.936Z,26.00
2022-12-01T20:35:19.278Z,23.90
2022-12-01T20:37:50.011Z,28.20
2022-12-01T20:40:20.583Z,22.60
2022-12-01T20:42:51.179Z,25.80
2022-12-01T20:45:21.563Z,27.50
2022-12-01T20:47:52.122Z,26.80
2022-12-01T20:50:23.439Z,26.70
2022-12-01T20:52:53.995Z,24.80
2022-12-01T20:55:25.040Z,26.10
2022-12-01T20:57:55.769Z,27.70
2022-12-01T21:00:26.810Z,30.10
2022-12-01T21:02:58.155Z,28.00
2022-12-01T21:05:29.376Z,23.20
2022-12-01T21:08:00.234Z,25.10
2022-12-01T21:10:31.328Z,27.60
2022-12-01T21:13:22.030Z,28.70
2022-12-01T21:15:58.559Z,26.90
2022-12-01T21:18:36.898Z,28.60
2022-12-01T21:21:21.727Z,25.30
2022-12-01T21:24:01.509Z,29.90
2022-12-01T21:26:32.321Z,29.50
2022-12-01T21:29:03.405Z,31.10
2022-12-01T21:31:34.327Z,31.40
2022-12-01T21:34:10.135Z,28.90
2022-12-01T21:36:41.071Z,26.30
2022-12-01T21:39:14.787Z,29.20
2022-12-01T21:41:46.093Z,28.20
2022-12-01T21:44:17.486Z,27.80
2022-12-01T21:46:50.337Z,27.20
2022-12-01T21:49:21.959Z,26.00
2022-12-01T21:51:53.862Z,25.70
2022-12-01T21:54:24.602Z,26.90
2022-12-01T21:56:58.438Z,28.80
2022-12-01T21:59:29.343Z,29.30
2022-12-01T22:02:00.216Z,25.00
2022-12-01T22:04:32.846Z,29.60
2022-12-01T22:07:03.507Z,29.00
2022-12-01T22:09:35.097Z,26.10
2022-12-01T22:12:14.540Z,30.70
2022-12-01T22:14:45.108Z,31.10
2022-12-01T22:17:19.877Z,28.20
2022-12-01T22:19:53.789Z,35.60
2022-12-01T22:22:26.832Z,27.60
2022-12-01T22:24:59.516Z,30.60
2022-12-01T22:27:31.987Z,32.50
2022-12-01T22:30:11.266Z,36.50
2022-12-01T22:32:45.637Z,32.90
2022-12-01T22:35:24.579Z,27.70
2022-12-01T22:37:56.627Z,31.20
2022-12-01T22:40:40.981Z,27.50
2022-12-01T22:43:31.273Z,29.50
2022-12-01T22:46:19.395Z,26.30
2022-12-01T22:48:51.141Z,28.10
2022-12-01T22:51:32.868Z,31.40
2022-12-01T22:54:21.132Z,28.10
2022-12-01T22:56:52.549Z,27.40
2022-12-01T22:59:24.210Z,27.90
2022-12-01T23:01:55.722Z,28.10
2022-12-01T23:04:28.104Z,31.80
2022-12-01T23:07:03.100Z,28.10
2022-12-01T23:09:35.753Z,33.30
2022-12-01T23:12:23.712Z,29.90
2022-12-01T23:14:55.988Z,28.50
2022-12-01T23:17:28.118Z,30.70
2022-12-01T23:20:24.442Z,27.80
2022-12-01T23:22:56.431Z,27.50
2022-12-01T23:25:27.758Z,23.30
2022-12-01T23:28:00.372Z,26.30
2022-12-01T23:30:31.304Z,29.40
2022-12-01T23:33:07.347Z,26.70
2022-12-01T23:35:40.868Z,30.80
2022-12-01T23:38:15.211Z,27.00
2022-12-01T23:40:46.474Z,31.40
2022-12-01T23:43:20.663Z,27.90
2022-12-01T23:45:52.574Z,29.40
2022-12-01T23:48:23.956Z,29.00
2022-12-01T23:50:55.566Z,29.90
2022-12-01T23:53:29.870Z,27.20
2022-12-01T23:56:04.101Z,29.00
2022-12-01T23:58:35.136Z,33.00
